Terminal Aerodrome Forecast
Issued by NWS Atlanta, GA

Home | Current Version | Previous Version | Text Only | Print | Product List | Glossary On
Versions: 1 2 3 4 5 6 7 8 9 10 11 12
128
FTUS42 KFFC 201742
TAFMCN
TAF
KMCN 201742Z 2018/2118 31005KT P6SM VCSH SCT050
     FM210100 00000KT P6SM FEW250
      TEMPO 2110/2112 4SM BR
     FM211300 03004KT P6SM FEW250
     FM211700 08006KT P6SM SCT050=

USA.gov is the U.S. government's official web portal to all federal, state and local government web resources and services.